Time;durP1;ratioP1;P1;durP2;ratioP2;P2;SDS_P1;SDS_P2;PMS_P1;PMS_P2;Temp;Humidity;BMP_temperature;BMP_pressure;BME280_temperature;BME280_humidity;BME280_pressure;Samples;Min_cycle;Max_cycle;Signal;HPM_P1;HPM_P2
2021/05/01 00:01:19;;;;;;;70.75;37.63;;;;;;;;;;5074448;28;20204;-68
2021/05/01 00:03:47;;;;;;;62.25;36.67;;;;;;;;;;5074032;28;20747;-68
2021/05/01 00:06:14;;;;;;;68.22;40.95;;;;;;;;;;5074408;28;20194;-68
2021/05/01 00:08:40;;;;;;;62.20;37.35;;;;;;;;;;5074581;28;20288;-68
2021/05/01 00:11:07;;;;;;;64.93;40.30;;;;;;;;;;5074742;28;20236;-69
2021/05/01 00:13:34;;;;;;;61.83;37.58;;;;;;;;;;5073860;28;20236;-68
2021/05/01 00:16:02;;;;;;;69.93;36.90;;;;;;;;;;5074428;28;20204;-68
2021/05/01 00:18:29;;;;;;;65.75;37.55;;;;;;;;;;5074363;28;20639;-68
2021/05/01 00:20:57;;;;;;;71.25;37.85;;;;;;;;;;5073949;28;20628;-68
2021/05/01 00:23:23;;;;;;;65.65;40.58;;;;;;;;;;5073682;28;20225;-68
2021/05/01 00:25:50;;;;;;;67.70;38.83;;;;;;;;;;5073862;28;20282;-68
2021/05/01 00:28:17;;;;;;;70.43;39.50;;;;;;;;;;5073410;28;20197;-69
2021/05/01 00:30:44;;;;;;;64.97;38.78;;;;;;;;;;5073676;28;20286;-68
2021/05/01 00:33:11;;;;;;;69.38;36.55;;;;;;;;;;5073971;28;20614;-69
2021/05/01 00:35:37;;;;;;;65.07;38.40;;;;;;;;;;5073598;28;20275;-70
2021/05/01 00:38:06;;;;;;;69.32;39.63;;;;;;;;;;5074499;28;20198;-69
2021/05/01 00:40:33;;;;;;;59.50;39.05;;;;;;;;;;5074259;28;20230;-69
2021/05/01 00:43:00;;;;;;;68.53;38.35;;;;;;;;;;5073688;28;20216;-69
2021/05/01 00:45:26;;;;;;;67.07;37.42;;;;;;;;;;5073772;28;20543;-69
2021/05/01 00:47:53;;;;;;;69.13;38.38;;;;;;;;;;5073662;28;20656;-69
2021/05/01 00:50:20;;;;;;;67.28;39.28;;;;;;;;;;5073697;28;20305;-69
2021/05/01 00:52:47;;;;;;;70.38;38.47;;;;;;;;;;5073732;28;20235;-69
2021/05/01 00:55:15;;;;;;;63.33;38.20;;;;;;;;;;5074018;28;20227;-69
2021/05/01 00:57:43;;;;;;;67.60;39.83;;;;;;;;;;5073929;28;20202;-69
2021/05/01 01:00:21;;;;;;;64.97;39.70;;;;;;;;;;5073892;28;20199;-69
2021/05/01 01:02:47;;;;;;;63.47;38.35;;;;;;;;;;5074064;28;20577;-69
2021/05/01 01:05:14;;;;;;;65.25;39.63;;;;;;;;;;5073647;28;20200;-69
2021/05/01 01:07:41;;;;;;;63.60;39.30;;;;;;;;;;5073515;28;20207;-68
2021/05/01 01:10:08;;;;;;;62.63;36.95;;;;;;;;;;5073573;28;20283;-68
2021/05/01 01:12:35;;;;;;;73.22;41.65;;;;;;;;;;5073802;28;20277;-69
2021/05/01 01:15:02;;;;;;;70.93;39.83;;;;;;;;;;5074032;28;20290;-68
2021/05/01 01:17:29;;;;;;;62.25;39.03;;;;;;;;;;5074121;28;20196;-69
2021/05/01 01:19:56;;;;;;;70.35;41.55;;;;;;;;;;5073698;28;20198;-69
2021/05/01 01:22:23;;;;;;;61.72;39.70;;;;;;;;;;5074344;28;20316;-68
2021/05/01 01:24:50;;;;;;;63.40;41.67;;;;;;;;;;5073055;28;20307;-68
2021/05/01 01:27:17;;;;;;;61.88;39.45;;;;;;;;;;5074757;28;20277;-68
2021/05/01 01:29:47;;;;;;;65.13;37.67;;;;;;;;;;5074748;28;20254;-68
2021/05/01 01:32:14;;;;;;;58.75;38.78;;;;;;;;;;5075952;28;20183;-68
2021/05/01 01:34:44;;;;;;;58.50;35.28;;;;;;;;;;5073904;28;20724;-68
2021/05/01 01:37:11;;;;;;;62.55;37.92;;;;;;;;;;5072990;28;20320;-68
2021/05/01 01:39:39;;;;;;;63.50;39.72;;;;;;;;;;5077254;28;20198;-68
2021/05/01 01:42:06;;;;;;;65.80;39.42;;;;;;;;;;5077082;28;20259;-68
2021/05/01 01:44:32;;;;;;;65.57;38.03;;;;;;;;;;5077270;28;20258;-68
2021/05/01 01:46:59;;;;;;;61.38;37.05;;;;;;;;;;5077062;28;20206;-68
2021/05/01 01:49:26;;;;;;;62.88;38.00;;;;;;;;;;5076760;28;20323;-68
2021/05/01 01:51:53;;;;;;;59.42;38.50;;;;;;;;;;5076978;28;20229;-69
2021/05/01 01:54:19;;;;;;;63.00;38.17;;;;;;;;;;5076948;28;20617;-68
2021/05/01 01:56:47;;;;;;;62.25;40.05;;;;;;;;;;5076549;28;20293;-68
2021/05/01 01:59:14;;;;;;;64.25;38.70;;;;;;;;;;5076857;28;20278;-68
2021/05/01 02:01:40;;;;;;;60.35;37.58;;;;;;;;;;5077017;28;20782;-68
2021/05/01 02:04:07;;;;;;;67.40;40.58;;;;;;;;;;5076328;28;20729;-68
2021/05/01 02:06:34;;;;;;;64.90;40.63;;;;;;;;;;5076369;28;20288;-68
2021/05/01 02:09:01;;;;;;;65.80;41.30;;;;;;;;;;5076337;28;20247;-68
2021/05/01 02:11:27;;;;;;;65.63;41.17;;;;;;;;;;5076479;28;20239;-68
2021/05/01 02:13:55;;;;;;;63.95;41.22;;;;;;;;;;5076794;28;20239;-68
2021/05/01 02:16:22;;;;;;;78.57;41.72;;;;;;;;;;5077056;28;20285;-68
2021/05/01 02:18:49;;;;;;;74.22;41.70;;;;;;;;;;5076483;28;20288;-68
2021/05/01 02:21:15;;;;;;;70.22;41.80;;;;;;;;;;5076132;28;20288;-68
2021/05/01 02:23:42;;;;;;;72.22;44.17;;;;;;;;;;5075972;28;20270;-68
2021/05/01 02:26:09;;;;;;;70.75;40.97;;;;;;;;;;5076016;28;20232;-68
2021/05/01 02:28:35;;;;;;;72.68;42.88;;;;;;;;;;5075991;28;20207;-68
2021/05/01 02:31:03;;;;;;;71.85;44.63;;;;;;;;;;5075952;28;20282;-68
2021/05/01 02:33:30;;;;;;;72.57;42.35;;;;;;;;;;5076478;28;20231;-68
2021/05/01 02:35:57;;;;;;;66.72;40.75;;;;;;;;;;5076183;28;20625;-68
2021/05/01 02:38:23;;;;;;;83.55;44.97;;;;;;;;;;5075809;28;20227;-68
2021/05/01 02:40:50;;;;;;;68.60;39.13;;;;;;;;;;5076103;28;20282;-68
2021/05/01 02:43:17;;;;;;;72.25;44.58;;;;;;;;;;5076182;28;20249;-68
2021/05/01 02:45:44;;;;;;;81.15;45.08;;;;;;;;;;5075709;28;20230;-68
2021/05/01 02:48:11;;;;;;;71.57;44.28;;;;;;;;;;5076029;28;20234;-68
2021/05/01 02:50:39;;;;;;;70.75;42.88;;;;;;;;;;5075940;28;20364;-69
2021/05/01 02:53:06;;;;;;;81.82;46.85;;;;;;;;;;5077296;28;20217;-68
2021/05/01 02:55:32;;;;;;;76.03;48.53;;;;;;;;;;5075661;28;20281;-68
2021/05/01 02:57:59;;;;;;;84.75;43.08;;;;;;;;;;5075760;28;20756;-69
2021/05/01 03:00:27;;;;;;;79.13;45.85;;;;;;;;;;5075400;28;20285;-68
2021/05/01 03:02:53;;;;;;;75.38;45.15;;;;;;;;;;5075608;28;20261;-68
2021/05/01 03:05:22;;;;;;;79.88;47.38;;;;;;;;;;5075619;28;20332;-68
2021/05/01 03:07:49;;;;;;;81.57;44.75;;;;;;;;;;5075674;28;20283;-69
2021/05/01 03:10:17;;;;;;;77.30;44.90;;;;;;;;;;5075488;28;20239;-69
2021/05/01 03:12:44;;;;;;;79.57;48.65;;;;;;;;;;5075399;28;20285;-69
2021/05/01 03:15:12;;;;;;;85.03;45.13;;;;;;;;;;5074782;28;20298;-69
2021/05/01 03:17:39;;;;;;;72.05;44.05;;;;;;;;;;5074723;28;20286;-69
2021/05/01 03:20:07;;;;;;;71.30;41.80;;;;;;;;;;5075036;28;20286;-69
2021/05/01 03:22:35;;;;;;;71.13;40.92;;;;;;;;;;5074606;28;20204;-69
2021/05/01 03:25:02;;;;;;;61.42;40.08;;;;;;;;;;5074886;28;20330;-69
2021/05/01 03:27:28;;;;;;;75.22;42.28;;;;;;;;;;5075027;28;20232;-69
2021/05/01 03:29:55;;;;;;;65.40;38.22;;;;;;;;;;5074557;28;20211;-69
2021/05/01 03:32:22;;;;;;;63.58;38.63;;;;;;;;;;5074536;28;20283;-69
2021/05/01 03:34:49;;;;;;;52.42;33.60;;;;;;;;;;5074481;28;20290;-68
2021/05/01 03:37:15;;;;;;;58.03;34.00;;;;;;;;;;5074287;28;20657;-69
2021/05/01 03:39:43;;;;;;;54.05;32.08;;;;;;;;;;5074320;28;20237;-68
2021/05/01 03:42:10;;;;;;;44.60;29.50;;;;;;;;;;5074654;28;20237;-69
2021/05/01 03:44:37;;;;;;;46.28;30.55;;;;;;;;;;5074188;28;20263;-69
2021/05/01 03:47:04;;;;;;;42.63;29.70;;;;;;;;;;5074211;28;20286;-69
2021/05/01 03:49:31;;;;;;;48.72;30.70;;;;;;;;;;5074638;28;20767;-69
2021/05/01 03:51:57;;;;;;;51.08;33.13;;;;;;;;;;5074093;28;20728;-68
2021/05/01 03:54:24;;;;;;;48.50;29.60;;;;;;;;;;5074051;28;20244;-68
2021/05/01 03:56:52;;;;;;;52.03;31.80;;;;;;;;;;5073987;28;20281;-69
2021/05/01 03:59:18;;;;;;;44.83;29.90;;;;;;;;;;5073845;28;20233;-69
2021/05/01 04:01:45;;;;;;;42.20;28.13;;;;;;;;;;5073669;28;20237;-68
2021/05/01 04:04:12;;;;;;;49.33;31.23;;;;;;;;;;5074262;28;20215;-68
2021/05/01 04:06:39;;;;;;;45.60;30.65;;;;;;;;;;5074108;28;20248;-68
2021/05/01 04:09:07;;;;;;;41.72;26.83;;;;;;;;;;5073852;28;20195;-68
2021/05/01 04:11:33;;;;;;;42.65;28.98;;;;;;;;;;5074239;28;20201;-68
2021/05/01 04:14:01;;;;;;;38.38;27.85;;;;;;;;;;5074035;28;20314;-68
2021/05/01 04:16:28;;;;;;;37.75;25.52;;;;;;;;;;5074642;28;20228;-68
2021/05/01 04:18:55;;;;;;;40.70;26.83;;;;;;;;;;5073617;28;20699;-68
2021/05/01 04:21:21;;;;;;;40.88;29.02;;;;;;;;;;5073519;28;20282;-68
2021/05/01 04:23:48;;;;;;;40.13;28.88;;;;;;;;;;5073690;28;20316;-68
2021/05/01 04:26:15;;;;;;;39.05;27.45;;;;;;;;;;5073519;28;20195;-68
2021/05/01 04:28:42;;;;;;;43.40;29.42;;;;;;;;;;5073724;28;20591;-68
2021/05/01 04:31:10;;;;;;;45.72;29.23;;;;;;;;;;5074251;28;20195;-69
2021/05/01 04:33:37;;;;;;;46.30;28.83;;;;;;;;;;5073712;28;20199;-68
2021/05/01 04:36:04;;;;;;;42.85;28.98;;;;;;;;;;5073600;28;20249;-70
2021/05/01 04:38:30;;;;;;;47.65;29.73;;;;;;;;;;5073233;28;20650;-69
2021/05/01 04:40:57;;;;;;;44.00;30.48;;;;;;;;;;5073202;28;20286;-69
2021/05/01 04:43:25;;;;;;;46.53;29.25;;;;;;;;;;5073178;28;20733;-69
2021/05/01 04:45:52;;;;;;;41.20;28.80;;;;;;;;;;5073438;28;20230;-69
2021/05/01 04:48:20;;;;;;;46.83;29.73;;;;;;;;;;5067901;28;20286;-68
2021/05/01 04:50:49;;;;;;;39.80;27.13;;;;;;;;;;5064065;28;20723;-69
2021/05/01 04:53:16;;;;;;;43.58;29.70;;;;;;;;;;5073776;28;20200;-69
2021/05/01 04:55:43;;;;;;;44.95;27.98;;;;;;;;;;5073316;28;20285;-69
2021/05/01 04:58:10;;;;;;;43.97;28.73;;;;;;;;;;5072920;28;20708;-69
2021/05/01 05:00:36;;;;;;;44.30;28.95;;;;;;;;;;5073779;28;20196;-69
2021/05/01 05:03:03;;;;;;;40.10;28.30;;;;;;;;;;5072686;28;20664;-69
2021/05/01 05:05:31;;;;;;;43.60;28.85;;;;;;;;;;5072839;28;20389;-69
2021/05/01 05:07:58;;;;;;;44.63;28.70;;;;;;;;;;5073218;28;20238;-69
2021/05/01 05:10:25;;;;;;;42.42;29.52;;;;;;;;;;5073364;28;20301;-69
2021/05/01 05:12:52;;;;;;;45.53;30.33;;;;;;;;;;5076993;28;20202;-69
2021/05/01 05:15:19;;;;;;;40.78;27.63;;;;;;;;;;5079856;28;20348;-69
2021/05/01 05:17:45;;;;;;;38.60;28.23;;;;;;;;;;5079633;28;20194;-68
2021/05/01 05:20:12;;;;;;;34.90;26.73;;;;;;;;;;5079735;28;20246;-69
2021/05/01 05:22:40;;;;;;;44.90;27.88;;;;;;;;;;5080261;28;20624;-69
2021/05/01 05:25:07;;;;;;;34.15;24.85;;;;;;;;;;5080085;28;20264;-69
2021/05/01 05:27:34;;;;;;;42.17;27.77;;;;;;;;;;5080086;28;20227;-68
2021/05/01 05:30:01;;;;;;;36.40;26.35;;;;;;;;;;5079684;28;20191;-68
2021/05/01 05:32:28;;;;;;;42.90;29.90;;;;;;;;;;5079307;28;20204;-69
2021/05/01 05:34:55;;;;;;;42.88;27.15;;;;;;;;;;5079752;28;20282;-68
2021/05/01 05:37:22;;;;;;;47.38;28.50;;;;;;;;;;5079779;28;20190;-68
2021/05/01 05:39:50;;;;;;;39.92;27.67;;;;;;;;;;5079398;28;20238;-69
2021/05/01 05:42:18;;;;;;;37.47;26.85;;;;;;;;;;5079757;28;20203;-68
2021/05/01 05:44:48;;;;;;;45.03;28.33;;;;;;;;;;5079589;28;20229;-68
2021/05/01 05:47:15;;;;;;;44.75;28.17;;;;;;;;;;5079926;28;20210;-68
2021/05/01 05:49:41;;;;;;;44.28;29.65;;;;;;;;;;5079392;28;20319;-68
2021/05/01 05:52:08;;;;;;;38.30;27.00;;;;;;;;;;5079192;28;20202;-68
2021/05/01 05:54:36;;;;;;;41.65;27.08;;;;;;;;;;5079295;28;20264;-69
2021/05/01 05:57:04;;;;;;;44.25;27.33;;;;;;;;;;5079579;28;20228;-68
2021/05/01 05:59:30;;;;;;;46.88;27.83;;;;;;;;;;5079546;28;20246;-68
2021/05/01 06:01:57;;;;;;;37.00;27.70;;;;;;;;;;5079527;28;20204;-68
2021/05/01 06:04:26;;;;;;;38.13;28.00;;;;;;;;;;5079158;28;20261;-68
2021/05/01 06:06:59;;;;;;;39.47;26.75;;;;;;;;;;5079238;28;20669;-69
2021/05/01 06:09:27;;;;;;;43.72;29.45;;;;;;;;;;5079810;28;20233;-68
2021/05/01 06:11:54;;;;;;;45.05;28.65;;;;;;;;;;5082198;28;20287;-68
2021/05/01 06:14:25;;;;;;;42.40;28.85;;;;;;;;;;5082496;28;20294;-68
2021/05/01 06:16:51;;;;;;;35.90;26.30;;;;;;;;;;5082002;28;20194;-68
2021/05/01 06:19:18;;;;;;;38.67;26.90;;;;;;;;;;5079489;28;20726;-69
2021/05/01 06:21:45;;;;;;;34.90;25.58;;;;;;;;;;5079578;28;20230;-68
2021/05/01 06:24:13;;;;;;;42.22;26.35;;;;;;;;;;5078191;28;20263;-69
2021/05/01 06:26:40;;;;;;;34.40;24.98;;;;;;;;;;5076604;28;20228;-68
2021/05/01 06:29:06;;;;;;;37.95;28.20;;;;;;;;;;5076165;28;20196;-69
2021/05/01 06:31:36;;;;;;;43.17;27.35;;;;;;;;;;5075850;28;20670;-68
2021/05/01 06:34:04;;;;;;;40.83;26.60;;;;;;;;;;5075507;28;20204;-66
2021/05/01 06:36:31;;;;;;;41.53;26.48;;;;;;;;;;5075575;28;20211;-66
2021/05/01 06:39:01;;;;;;;39.50;27.45;;;;;;;;;;5076312;28;20286;-65
2021/05/01 06:41:32;;;;;;;60.50;28.08;;;;;;;;;;5076008;28;20276;-69
2021/05/01 06:44:02;;;;;;;41.58;27.80;;;;;;;;;;5076326;28;20535;-65
2021/05/01 06:46:30;;;;;;;39.10;25.42;;;;;;;;;;5076086;28;20192;-73
2021/05/01 06:48:59;;;;;;;33.53;22.67;;;;;;;;;;5075128;28;20235;-75
2021/05/01 06:51:27;;;;;;;33.75;22.88;;;;;;;;;;5075762;28;20238;-70
2021/05/01 06:53:54;;;;;;;35.25;25.48;;;;;;;;;;5075469;28;20203;-72
2021/05/01 06:56:21;;;;;;;30.98;23.83;;;;;;;;;;5075871;28;20234;-72
2021/05/01 06:58:48;;;;;;;36.13;25.15;;;;;;;;;;5075851;28;20236;-71
2021/05/01 07:01:15;;;;;;;34.78;23.83;;;;;;;;;;5076654;28;20190;-72
2021/05/01 07:03:44;;;;;;;35.10;24.83;;;;;;;;;;5075753;28;20359;-71
2021/05/01 07:06:12;;;;;;;34.35;25.50;;;;;;;;;;5075159;28;20234;-71
2021/05/01 07:08:40;;;;;;;37.42;25.23;;;;;;;;;;5075536;28;20539;-71
2021/05/01 07:11:07;;;;;;;39.47;25.63;;;;;;;;;;5076096;28;20195;-70
2021/05/01 07:13:34;;;;;;;40.65;26.40;;;;;;;;;;5075798;28;20578;-72
2021/05/01 07:16:03;;;;;;;34.55;25.70;;;;;;;;;;5074993;28;20216;-71
2021/05/01 07:18:30;;;;;;;37.35;24.35;;;;;;;;;;5074999;28;20194;-72
2021/05/01 07:20:58;;;;;;;33.83;25.85;;;;;;;;;;5075007;28;20644;-71
2021/05/01 07:23:26;;;;;;;35.38;25.65;;;;;;;;;;5075325;28;20194;-72
2021/05/01 07:25:53;;;;;;;39.88;26.13;;;;;;;;;;5075777;28;20195;-72
2021/05/01 07:28:23;;;;;;;32.30;24.75;;;;;;;;;;5074903;28;20196;-71
2021/05/01 07:30:53;;;;;;;33.53;23.70;;;;;;;;;;5075699;28;20581;-71
2021/05/01 07:33:24;;;;;;;37.17;25.33;;;;;;;;;;5075340;28;20227;-72
2021/05/01 07:35:52;;;;;;;41.50;24.67;;;;;;;;;;5074682;28;20269;-71
2021/05/01 07:38:19;;;;;;;41.05;28.65;;;;;;;;;;5075013;28;20200;-72
2021/05/01 07:40:47;;;;;;;32.33;25.30;;;;;;;;;;5075384;28;20230;-72
2021/05/01 07:43:16;;;;;;;33.67;24.98;;;;;;;;;;5075225;28;20237;-71
2021/05/01 07:45:42;;;;;;;33.25;23.90;;;;;;;;;;5074835;28;20279;-72
2021/05/01 07:48:11;;;;;;;31.48;23.88;;;;;;;;;;5074307;28;20227;-71
2021/05/01 07:50:38;;;;;;;31.15;23.73;;;;;;;;;;5074442;28;20289;-70
2021/05/01 07:53:05;;;;;;;30.50;22.42;;;;;;;;;;5074176;28;20200;-72
2021/05/01 07:55:32;;;;;;;28.55;21.52;;;;;;;;;;5074087;28;20200;-73
2021/05/01 07:57:59;;;;;;;30.33;22.60;;;;;;;;;;5074355;28;20227;-72
2021/05/01 08:00:26;;;;;;;34.30;24.35;;;;;;;;;;5074333;28;20291;-71
2021/05/01 08:02:53;;;;;;;35.95;23.15;;;;;;;;;;5074027;28;20657;-71
2021/05/01 08:05:21;;;;;;;33.95;22.05;;;;;;;;;;5074611;28;20217;-71
2021/05/01 08:07:48;;;;;;;30.63;21.98;;;;;;;;;;5074088;28;20279;-71
2021/05/01 08:10:15;;;;;;;28.50;21.15;;;;;;;;;;5074159;28;20203;-72
2021/05/01 08:12:42;;;;;;;29.52;22.15;;;;;;;;;;5074431;28;20356;-70
2021/05/01 08:15:10;;;;;;;32.60;22.88;;;;;;;;;;5073985;28;20201;-71
2021/05/01 08:17:37;;;;;;;31.13;20.55;;;;;;;;;;5073746;28;20202;-72
2021/05/01 08:20:04;;;;;;;28.17;21.48;;;;;;;;;;5073423;28;20671;-72
2021/05/01 08:22:31;;;;;;;24.95;20.25;;;;;;;;;;5073865;28;20602;-71
2021/05/01 08:24:58;;;;;;;28.90;22.02;;;;;;;;;;5073818;28;20629;-72
2021/05/01 08:27:26;;;;;;;31.80;23.48;;;;;;;;;;5074074;28;20274;-72
2021/05/01 08:29:52;;;;;;;34.95;25.10;;;;;;;;;;5073775;28;20217;-71
2021/05/01 08:32:20;;;;;;;27.13;19.35;;;;;;;;;;5073601;28;20286;-71
2021/05/01 08:34:47;;;;;;;27.83;21.85;;;;;;;;;;5073249;28;20717;-72
2021/05/01 08:37:14;;;;;;;35.53;23.02;;;;;;;;;;5073599;28;20285;-71
2021/05/01 08:39:40;;;;;;;37.58;23.35;;;;;;;;;;5073503;28;20232;-71
2021/05/01 08:42:07;;;;;;;31.98;22.85;;;;;;;;;;5073297;28;20279;-70
2021/05/01 08:44:34;;;;;;;42.65;24.40;;;;;;;;;;5073111;28;20306;-72
2021/05/01 08:47:01;;;;;;;36.20;22.48;;;;;;;;;;5072576;28;20207;-73
2021/05/01 08:49:29;;;;;;;28.45;22.45;;;;;;;;;;5073033;28;20228;-72
2021/05/01 08:51:56;;;;;;;30.65;23.77;;;;;;;;;;5073552;28;20246;-73
2021/05/01 08:54:23;;;;;;;26.90;20.75;;;;;;;;;;5073399;28;20583;-72
2021/05/01 08:56:50;;;;;;;24.20;18.65;;;;;;;;;;5073215;28;20239;-72
2021/05/01 08:59:17;;;;;;;32.70;19.60;;;;;;;;;;5073496;28;20605;-72
2021/05/01 09:01:43;;;;;;;27.75;20.75;;;;;;;;;;5073362;28;20543;-72
2021/05/01 09:04:11;;;;;;;26.25;21.30;;;;;;;;;;5073492;28;20646;-73
2021/05/01 09:06:39;;;;;;;28.13;22.02;;;;;;;;;;5073570;28;20278;-74
2021/05/01 09:09:06;;;;;;;34.72;21.77;;;;;;;;;;5072969;28;20198;-73
2021/05/01 09:11:37;;;;;;;33.58;23.35;;;;;;;;;;5073476;28;20286;-74
2021/05/01 09:14:17;;;;;;;29.02;21.83;;;;;;;;;;5072782;28;20201;-72
2021/05/01 09:16:44;;;;;;;30.25;23.55;;;;;;;;;;5072986;28;20239;-73
2021/05/01 09:19:11;;;;;;;30.42;23.30;;;;;;;;;;5073260;28;20279;-74
2021/05/01 09:21:41;;;;;;;32.67;24.17;;;;;;;;;;5073606;28;20292;-74
2021/05/01 09:24:21;;;;;;;34.38;25.50;;;;;;;;;;5072645;28;20228;-73
2021/05/01 09:26:48;;;;;;;30.40;23.38;;;;;;;;;;5073116;28;20538;-74
2021/05/01 09:29:27;;;;;;;34.42;23.15;;;;;;;;;;5072851;28;20203;-74
2021/05/01 09:31:54;;;;;;;32.77;23.43;;;;;;;;;;5073191;28;20271;-73
2021/05/01 09:34:23;;;;;;;29.47;22.87;;;;;;;;;;5072797;28;20482;-74
2021/05/01 09:36:51;;;;;;;30.90;23.40;;;;;;;;;;5073121;28;20536;-73
2021/05/01 09:39:18;;;;;;;33.55;26.67;;;;;;;;;;5073078;28;20441;-73
2021/05/01 09:41:46;;;;;;;32.75;25.90;;;;;;;;;;5072895;28;20192;-72
2021/05/01 09:44:13;;;;;;;28.27;20.35;;;;;;;;;;5073090;28;20271;-73
2021/05/01 09:46:44;;;;;;;25.95;19.88;;;;;;;;;;5072654;28;20296;-73
2021/05/01 09:49:12;;;;;;;23.05;19.70;;;;;;;;;;5072378;28;20227;-73
2021/05/01 09:51:50;;;;;;;23.83;16.13;;;;;;;;;;5071578;28;20226;-73
2021/05/01 09:54:18;;;;;;;18.95;15.82;;;;;;;;;;5072906;28;20566;-73
2021/05/01 09:56:46;;;;;;;20.30;17.40;;;;;;;;;;5072475;28;20295;-73
2021/05/01 09:59:13;;;;;;;20.35;16.63;;;;;;;;;;5074201;28;20521;-72
2021/05/01 10:01:40;;;;;;;24.52;15.65;;;;;;;;;;5076840;28;20201;-71
2021/05/01 10:04:15;;;;;;;18.92;14.13;;;;;;;;;;5075389;28;20221;-71
2021/05/01 10:06:42;;;;;;;18.55;16.27;;;;;;;;;;5076432;28;20277;-72
2021/05/01 10:09:09;;;;;;;20.67;16.95;;;;;;;;;;5071119;28;20657;-71
2021/05/01 10:11:36;;;;;;;20.60;16.83;;;;;;;;;;5065005;28;20247;-72
2021/05/01 10:14:09;;;;;;;15.87;13.40;;;;;;;;;;5056331;28;20774;-71
2021/05/01 10:16:36;;;;;;;18.27;12.33;;;;;;;;;;5056126;28;20434;-71
2021/05/01 10:19:07;;;;;;;11.93;10.73;;;;;;;;;;5056278;28;20539;-71
2021/05/01 10:21:35;;;;;;;9.80;7.40;;;;;;;;;;5056016;28;20653;-72
2021/05/01 10:24:01;;;;;;;9.73;8.83;;;;;;;;;;5054747;28;20501;-72
2021/05/01 10:26:40;;;;;;;10.70;9.50;;;;;;;;;;5055792;28;20915;-72
2021/05/01 10:29:09;;;;;;;11.63;10.03;;;;;;;;;;5056176;28;20456;-72
2021/05/01 10:31:45;;;;;;;14.40;11.20;;;;;;;;;;5056512;28;20497;-72
2021/05/01 10:34:13;;;;;;;18.30;11.23;;;;;;;;;;5054690;28;20447;-73
2021/05/01 10:36:44;;;;;;;14.70;12.43;;;;;;;;;;5055420;28;20496;-72
2021/05/01 10:39:15;;;;;;;16.70;12.90;;;;;;;;;;5055553;28;20436;-72
2021/05/01 10:41:54;;;;;;;13.33;10.80;;;;;;;;;;5055220;28;20943;-72
2021/05/01 10:44:21;;;;;;;13.10;11.70;;;;;;;;;;5055952;28;20555;-73
2021/05/01 10:46:48;;;;;;;13.30;11.70;;;;;;;;;;5055895;28;20966;-72
2021/05/01 10:49:15;;;;;;;13.23;11.50;;;;;;;;;;5055707;28;20508;-72
2021/05/01 10:51:43;;;;;;;14.37;10.70;;;;;;;;;;5055216;28;20441;-72
2021/05/01 10:54:11;;;;;;;12.93;11.47;;;;;;;;;;5055546;28;20504;-73
2021/05/01 10:56:43;;;;;;;13.17;10.10;;;;;;;;;;5055178;28;20566;-72
2021/05/01 10:59:12;;;;;;;12.53;9.40;;;;;;;;;;5056021;28;20441;-71
2021/05/01 11:01:46;;;;;;;13.67;9.43;;;;;;;;;;5055082;28;20444;-72
2021/05/01 11:04:16;;;;;;;11.57;9.87;;;;;;;;;;5054908;28;20464;-71
2021/05/01 11:06:46;;;;;;;10.57;8.67;;;;;;;;;;5055459;28;20436;-72
2021/05/01 11:09:14;;;;;;;10.60;8.43;;;;;;;;;;5058225;28;20472;-72
2021/05/01 11:11:42;;;;;;;11.30;7.97;;;;;;;;;;5056950;28;20532;-72
2021/05/01 11:14:18;;;;;;;12.37;9.60;;;;;;;;;;5055529;28;20528;-71
2021/05/01 11:16:47;;;;;;;9.90;8.23;;;;;;;;;;5054659;28;20524;-72
2021/05/01 11:19:14;;;;;;;10.13;8.90;;;;;;;;;;5056663;28;20444;-72
2021/05/01 11:21:46;;;;;;;9.83;8.80;;;;;;;;;;5057025;28;20526;-72
2021/05/01 11:24:13;;;;;;;9.47;8.40;;;;;;;;;;5054460;28;20477;-71
2021/05/01 11:26:43;;;;;;;12.47;8.87;;;;;;;;;;5054760;28;20469;-72
2021/05/01 11:29:10;;;;;;;9.30;8.33;;;;;;;;;;5054935;28;20437;-71
2021/05/01 11:31:38;;;;;;;12.37;8.37;;;;;;;;;;5054790;28;20567;-72
2021/05/01 11:34:06;;;;;;;9.90;8.90;;;;;;;;;;5054852;28;20528;-71
2021/05/01 11:36:35;;;;;;;7.63;6.93;;;;;;;;;;5054349;28;20444;-71
2021/05/01 11:39:02;;;;;;;10.27;8.10;;;;;;;;;;5054443;28;20452;-75
2021/05/01 11:41:30;;;;;;;8.47;7.43;;;;;;;;;;5054655;28;20442;-75
2021/05/01 11:43:58;;;;;;;12.02;9.18;;;;;;;;;;5054246;28;20441;-73
2021/05/01 11:46:28;;;;;;;9.30;8.30;;;;;;;;;;5054089;28;20226;-74
2021/05/01 11:48:59;;;;;;;11.57;8.20;;;;;;;;;;5054376;28;20473;-74
2021/05/01 11:51:33;;;;;;;9.23;8.53;;;;;;;;;;5054195;28;20437;-74
2021/05/01 11:54:06;;;;;;;12.43;9.03;;;;;;;;;;5054944;28;20470;-74
2021/05/01 11:56:43;;;;;;;8.53;7.73;;;;;;;;;;5054041;28;20517;-73
2021/05/01 11:59:11;;;;;;;10.67;8.13;;;;;;;;;;5054268;28;20547;-74
2021/05/01 12:01:49;;;;;;;10.43;8.60;;;;;;;;;;5054056;28;20522;-74
2021/05/01 12:04:17;;;;;;;9.50;8.20;;;;;;;;;;5054554;28;20958;-73
2021/05/01 12:06:48;;;;;;;10.20;8.13;;;;;;;;;;5053991;28;20473;-73
2021/05/01 12:09:16;;;;;;;9.93;8.10;;;;;;;;;;5054354;28;20437;-74
2021/05/01 12:11:47;;;;;;;10.67;8.20;;;;;;;;;;5053505;28;20947;-74
2021/05/01 12:14:14;;;;;;;13.20;8.80;;;;;;;;;;5053176;28;20943;-73
2021/05/01 12:16:43;;;;;;;7.80;6.97;;;;;;;;;;5053563;28;20465;-74
2021/05/01 12:19:17;;;;;;;8.17;7.23;;;;;;;;;;5053016;28;20477;-73
2021/05/01 12:21:45;;;;;;;7.53;6.77;;;;;;;;;;5053423;28;20512;-73
2021/05/01 12:24:28;;;;;;;8.80;7.90;;;;;;;;;;5053448;28;20581;-73
2021/05/01 12:26:55;;;;;;;7.27;5.53;;;;;;;;;;5054687;28;20555;-74
2021/05/01 12:29:26;;;;;;;7.40;5.97;;;;;;;;;;5053779;28;20442;-73
2021/05/01 12:31:53;;;;;;;7.57;6.77;;;;;;;;;;5053766;28;20444;-74
2021/05/01 12:34:21;;;;;;;8.40;7.60;;;;;;;;;;5053628;28;20472;-74
2021/05/01 12:36:49;;;;;;;10.37;7.93;;;;;;;;;;5053607;28;20441;-74
2021/05/01 12:39:17;;;;;;;8.90;8.00;;;;;;;;;;5053333;28;20537;-73
2021/05/01 12:41:45;;;;;;;10.80;8.70;;;;;;;;;;5053614;28;20536;-70
2021/05/01 12:44:28;;;;;;;11.03;9.40;;;;;;;;;;5053243;28;20557;-70
2021/05/01 12:46:56;;;;;;;11.97;8.07;;;;;;;;;;5051927;28;20452;-70
2021/05/01 12:49:24;;;;;;;8.97;8.00;;;;;;;;;;5053631;28;20473;-72
2021/05/01 12:51:55;;;;;;;9.63;8.60;;;;;;;;;;5056257;28;20482;-70
2021/05/01 12:54:28;;;;;;;9.33;7.23;;;;;;;;;;5072360;28;20520;-71
2021/05/01 12:56:57;;;;;;;8.77;7.80;;;;;;;;;;5073644;28;20463;-71
2021/05/01 12:59:28;;;;;;;8.10;7.30;;;;;;;;;;5073642;28;20503;-71
2021/05/01 13:02:19;;;;;;;7.97;7.17;;;;;;;;;;5072986;28;20505;-71
2021/05/01 13:05:19;;;;;;;6.83;6.17;;;;;;;;;;5058470;28;20559;-71
2021/05/01 13:07:48;;;;;;;8.53;7.27;;;;;;;;;;5073356;28;20440;-71
2021/05/01 13:10:17;;;;;;;7.83;7.07;;;;;;;;;;5072714;28;20444;-71
2021/05/01 13:13:09;;;;;;;8.57;6.47;;;;;;;;;;5072643;28;20783;-71
2021/05/01 13:16:08;;;;;;;7.33;6.63;;;;;;;;;;5073001;28;20429;-72
2021/05/01 13:18:49;;;;;;;5.30;4.90;;;;;;;;;;5011212;28;20758;-72
2021/05/01 13:21:16;;;;;;;10.13;6.00;;;;;;;;;;5053929;28;20480;-72
2021/05/01 13:23:44;;;;;;;5.20;4.73;;;;;;;;;;5053045;28;20591;-72
2021/05/01 13:26:14;;;;;;;6.10;5.60;;;;;;;;;;5052544;28;20481;-70
2021/05/01 13:28:46;;;;;;;6.83;5.33;;;;;;;;;;5052551;28;20443;-71
2021/05/01 13:31:13;;;;;;;5.60;5.10;;;;;;;;;;5052435;28;20521;-71
2021/05/01 13:33:47;;;;;;;7.87;5.47;;;;;;;;;;5053185;28;20475;-71
2021/05/01 13:36:15;;;;;;;6.13;5.57;;;;;;;;;;5055622;28;20450;-71
2021/05/01 13:38:42;;;;;;;5.63;5.00;;;;;;;;;;5056433;28;20473;-73
2021/05/01 13:41:18;;;;;;;7.17;5.67;;;;;;;;;;5055600;28;20539;-71
2021/05/01 13:43:48;;;;;;;8.00;6.17;;;;;;;;;;5056308;28;20438;-71
2021/05/01 13:46:18;;;;;;;5.00;4.60;;;;;;;;;;5056482;28;20825;-70
2021/05/01 13:48:45;;;;;;;5.73;5.20;;;;;;;;;;5057190;28;20491;-71
2021/05/01 13:51:12;;;;;;;4.90;4.50;;;;;;;;;;5056437;28;20469;-70
2021/05/01 13:53:39;;;;;;;6.40;5.80;;;;;;;;;;5056434;28;20528;-71
2021/05/01 13:56:06;;;;;;;6.53;5.93;;;;;;;;;;5056319;28;20908;-71
2021/05/01 13:58:33;;;;;;;8.10;5.63;;;;;;;;;;5056013;28;20452;-70
2021/05/01 14:01:01;;;;;;;5.93;5.43;;;;;;;;;;5056269;28;20505;-71
2021/05/01 14:03:30;;;;;;;6.87;5.97;;;;;;;;;;5057070;28;20464;-71
2021/05/01 14:05:58;;;;;;;7.17;6.43;;;;;;;;;;5056203;28;20831;-70
2021/05/01 14:08:25;;;;;;;6.80;5.83;;;;;;;;;;5056044;28;20543;-71
2021/05/01 14:10:53;;;;;;;11.93;6.37;;;;;;;;;;5056084;28;20458;-71
2021/05/01 14:13:20;;;;;;;6.47;5.80;;;;;;;;;;5055400;28;20449;-71
2021/05/01 14:15:48;;;;;;;6.47;5.53;;;;;;;;;;5056174;28;20468;-72
2021/05/01 14:18:16;;;;;;;6.20;5.70;;;;;;;;;;5055910;28;20502;-71
2021/05/01 14:20:45;;;;;;;8.00;6.30;;;;;;;;;;5055040;28;20453;-71
2021/05/01 14:23:12;;;;;;;6.03;5.33;;;;;;;;;;5055940;28;20444;-70
2021/05/01 14:25:40;;;;;;;5.33;4.93;;;;;;;;;;5055085;28;20838;-71
2021/05/01 14:28:14;;;;;;;6.27;5.67;;;;;;;;;;5054669;28;20495;-72
2021/05/01 14:30:51;;;;;;;6.77;4.60;;;;;;;;;;5055116;28;20495;-71